Time;durP1;ratioP1;P1;durP2;ratioP2;P2;SDS_P1;SDS_P2;PMS_P1;PMS_P2;Temp;Humidity;BMP_temperature;BMP_pressure;BME280_temperature;BME280_humidity;BME280_pressure;Samples;Min_cycle;Max_cycle;Signal;HPM_P1;HPM_P2
2023/07/16 00:02:12;;;;;;;14.55;4.55;;;20.10;99.90;;;;;;5095425;28;20028;-60
2023/07/16 00:04:38;;;;;;;15.25;6.18;;;20.10;99.90;;;;;;5095177;28;20021;-60
2023/07/16 00:07:04;;;;;;;12.90;4.78;;;20.10;99.90;;;;;;5095102;28;20040;-60
2023/07/16 00:09:29;;;;;;;12.40;5.30;;;20.10;99.90;;;;;;5095220;28;20492;-60
2023/07/16 00:11:56;;;;;;;12.30;4.80;;;20.00;99.90;;;;;;5095117;28;20111;-60
2023/07/16 00:14:22;;;;;;;14.02;5.15;;;20.00;99.90;;;;;;5095063;28;20028;-60
2023/07/16 00:16:47;;;;;;;13.48;5.32;;;19.90;99.90;;;;;;5095185;28;20177;-60
2023/07/16 00:19:14;;;;;;;14.52;5.35;;;19.80;99.90;;;;;;5094800;28;20020;-60
2023/07/16 00:21:40;;;;;;;13.93;4.85;;;19.70;99.90;;;;;;5094987;28;20031;-59
2023/07/16 00:24:06;;;;;;;13.50;5.20;;;19.60;99.90;;;;;;5094764;28;20514;-60
2023/07/16 00:26:32;;;;;;;13.65;5.70;;;19.50;99.90;;;;;;5095208;28;20024;-60
2023/07/16 00:28:57;;;;;;;12.02;4.78;;;19.50;99.90;;;;;;5094522;28;20031;-60
2023/07/16 00:31:23;;;;;;;13.40;5.10;;;19.40;99.90;;;;;;5093537;28;20021;-60
2023/07/16 00:33:49;;;;;;;13.80;5.35;;;19.40;99.90;;;;;;5094825;28;20103;-60
2023/07/16 00:36:14;;;;;;;12.95;5.53;;;19.40;99.90;;;;;;5094615;28;20035;-60
2023/07/16 00:38:41;;;;;;;15.98;5.30;;;19.40;99.90;;;;;;5094527;28;20514;-60
2023/07/16 00:41:07;;;;;;;11.38;4.90;;;19.30;99.90;;;;;;5094545;28;20096;-60
2023/07/16 00:43:32;;;;;;;15.43;5.53;;;19.30;99.90;;;;;;5094522;28;20374;-60
2023/07/16 00:45:58;;;;;;;13.07;5.47;;;19.30;99.90;;;;;;5094685;28;20505;-60
2023/07/16 00:48:24;;;;;;;14.90;5.50;;;19.30;99.90;;;;;;5094652;28;20123;-60
2023/07/16 00:50:52;;;;;;;17.30;5.60;;;19.30;99.90;;;;;;5094477;28;20048;-59
2023/07/16 00:53:18;;;;;;;15.15;5.55;;;19.30;99.90;;;;;;5094254;28;20032;-60
2023/07/16 00:55:44;;;;;;;14.65;5.57;;;19.20;99.90;;;;;;5094103;28;20036;-60
2023/07/16 00:58:10;;;;;;;15.77;5.15;;;19.20;99.90;;;;;;5093934;28;20024;-60
2023/07/16 01:00:37;;;;;;;12.30;5.35;;;19.40;99.90;;;;;;5094166;28;20035;-60
2023/07/16 01:03:09;;;;;;;12.80;5.47;;;19.50;99.90;;;;;;5094227;28;20078;-60
2023/07/16 01:06:02;;;;;;;12.70;5.22;;;19.70;99.90;;;;;;5094275;28;20035;-60
2023/07/16 01:08:38;;;;;;;12.25;5.50;;;19.70;99.90;;;;;;5094145;28;20028;-60
2023/07/16 01:11:04;;;;;;;13.05;5.57;;;19.80;99.90;;;;;;5094214;28;20081;-60
2023/07/16 01:13:30;;;;;;;14.73;5.97;;;19.90;99.90;;;;;;5093517;28;20086;-59
2023/07/16 01:15:56;;;;;;;13.85;5.47;;;19.90;99.90;;;;;;5094043;28;20445;-60
2023/07/16 01:18:21;;;;;;;12.75;5.47;;;19.90;99.90;;;;;;5093729;28;20052;-60
2023/07/16 01:20:47;;;;;;;13.88;5.75;;;19.90;99.90;;;;;;5094316;28;20032;-60
2023/07/16 01:23:32;;;;;;;14.00;5.25;;;19.90;99.90;;;;;;5093733;28;20087;-59
2023/07/16 01:26:55;;;;;;;11.48;5.47;;;19.90;99.90;;;;;;5093868;28;20437;-60
2023/07/16 01:29:39;;;;;;;17.77;5.88;;;19.90;99.90;;;;;;4972272;28;20070;-60
2023/07/16 01:32:07;;;;;;;13.05;5.22;;;19.70;99.90;;;;;;4972362;28;20133;-60
2023/07/16 01:34:36;;;;;;;14.95;5.50;;;19.60;99.90;;;;;;4972340;28;20522;-59
2023/07/16 01:37:02;;;;;;;17.13;5.50;;;19.50;99.90;;;;;;4972246;28;20050;-60
2023/07/16 01:39:29;;;;;;;13.10;5.03;;;19.40;99.90;;;;;;4972427;28;20023;-60
2023/07/16 01:41:55;;;;;;;14.80;5.85;;;19.40;99.90;;;;;;4972109;28;20173;-60
2023/07/16 01:44:20;;;;;;;12.40;5.60;;;19.30;99.90;;;;;;4972163;28;20121;-60
2023/07/16 01:47:09;;;;;;;12.82;5.18;;;19.30;99.90;;;;;;4972333;28;20557;-60
2023/07/16 01:49:35;;;;;;;12.43;5.40;;;19.20;99.90;;;;;;4972516;28;20054;-60
2023/07/16 01:52:05;;;;;;;16.08;5.40;;;19.20;99.90;;;;;;4972022;28;20027;-60
2023/07/16 01:54:30;;;;;;;14.85;5.38;;;19.20;99.90;;;;;;4971840;28;20565;-61
2023/07/16 01:56:56;;;;;;;16.30;6.40;;;19.10;99.90;;;;;;4971583;28;20079;-58
2023/07/16 01:59:22;;;;;;;14.68;6.00;;;19.00;99.90;;;;;;4971918;28;20047;-59
2023/07/16 02:01:47;;;;;;;11.60;5.95;;;19.00;99.90;;;;;;4972767;28;20030;-60
2023/07/16 02:04:13;;;;;;;14.20;6.38;;;18.90;99.90;;;;;;5010883;28;20034;-60
2023/07/16 02:06:39;;;;;;;14.48;6.70;;;18.90;99.90;;;;;;5062514;28;20031;-59
2023/07/16 02:09:04;;;;;;;17.58;6.63;;;18.80;99.90;;;;;;5092934;28;20107;-60
2023/07/16 02:11:30;;;;;;;13.48;7.03;;;18.70;99.90;;;;;;5092579;28;20031;-60
2023/07/16 02:13:56;;;;;;;13.15;6.82;;;18.80;99.90;;;;;;5093203;28;20036;-60
2023/07/16 02:16:21;;;;;;;11.20;7.15;;;18.90;99.90;;;;;;5092773;28;20039;-59
2023/07/16 02:18:47;;;;;;;11.07;6.07;;;19.00;99.90;;;;;;5092464;28;20032;-60
2023/07/16 02:21:13;;;;;;;12.48;6.45;;;19.20;99.90;;;;;;5093051;28;20063;-60
2023/07/16 02:23:38;;;;;;;11.60;6.43;;;19.30;99.90;;;;;;5091716;28;20071;-60
2023/07/16 02:26:04;;;;;;;11.77;6.50;;;19.20;99.90;;;;;;5092556;28;20024;-59
2023/07/16 02:28:29;;;;;;;11.85;6.30;;;19.20;99.90;;;;;;5092683;28;20082;-60
2023/07/16 02:30:55;;;;;;;11.57;6.63;;;19.20;99.90;;;;;;5092483;28;20041;-61
2023/07/16 02:33:21;;;;;;;11.57;6.18;;;19.20;99.90;;;;;;5092382;28;20103;-60
2023/07/16 02:35:51;;;;;;;10.35;6.20;;;19.20;99.90;;;;;;5092466;28;20032;-60
2023/07/16 02:38:17;;;;;;;13.10;6.63;;;19.20;99.90;;;;;;5092482;28;20028;-60
2023/07/16 02:40:47;;;;;;;13.60;7.25;;;19.10;99.90;;;;;;5092054;28;20405;-59
2023/07/16 02:43:13;;;;;;;11.65;6.85;;;19.10;99.90;;;;;;5092305;28;20032;-60
2023/07/16 02:45:39;;;;;;;11.68;6.53;;;19.10;99.90;;;;;;5092666;28;20055;-60
2023/07/16 02:48:06;;;;;;;12.07;6.45;;;18.90;99.90;;;;;;5092198;28;20047;-59
2023/07/16 02:50:35;;;;;;;12.38;6.68;;;18.80;99.90;;;;;;5092405;28;20055;-60
2023/07/16 02:53:03;;;;;;;12.63;7.47;;;18.70;99.90;;;;;;5090714;28;20047;-59
2023/07/16 02:55:28;;;;;;;9.95;6.40;;;18.60;99.90;;;;;;5091552;28;20027;-60
2023/07/16 02:57:54;;;;;;;13.75;7.30;;;18.60;99.90;;;;;;5092095;28;20028;-60
2023/07/16 03:00:19;;;;;;;11.02;6.90;;;18.50;99.90;;;;;;5092046;28;20099;-60
2023/07/16 03:02:45;;;;;;;12.00;6.85;;;18.50;99.90;;;;;;5091832;28;20028;-60
2023/07/16 03:05:11;;;;;;;11.85;6.93;;;18.50;99.90;;;;;;5091977;28;20020;-60
2023/07/16 03:07:36;;;;;;;11.65;7.20;;;18.50;99.90;;;;;;5092136;28;20869;-60
2023/07/16 03:10:03;;;;;;;10.88;7.15;;;18.40;99.90;;;;;;5091484;28;20081;-60
2023/07/16 03:12:28;;;;;;;12.73;7.75;;;18.40;99.90;;;;;;5091774;28;20034;-60
2023/07/16 03:14:54;;;;;;;14.25;8.15;;;18.40;99.90;;;;;;5091537;28;20028;-60
2023/07/16 03:17:21;;;;;;;11.15;6.90;;;18.40;99.90;;;;;;5092100;28;20093;-60
2023/07/16 03:19:47;;;;;;;14.48;6.88;;;18.40;99.90;;;;;;5091637;28;20127;-60
2023/07/16 03:22:13;;;;;;;11.27;6.80;;;18.50;99.90;;;;;;5091512;28;20028;-60
2023/07/16 03:24:39;;;;;;;11.63;7.35;;;18.40;99.90;;;;;;5091183;28;20047;-60
2023/07/16 03:27:05;;;;;;;13.40;7.55;;;18.50;99.90;;;;;;5091996;28;20141;-59
2023/07/16 03:29:33;;;;;;;13.07;7.43;;;18.50;99.90;;;;;;5091559;28;20556;-61
2023/07/16 03:31:58;;;;;;;12.05;6.70;;;18.60;99.90;;;;;;5091470;28;20028;-60
2023/07/16 03:34:24;;;;;;;12.77;7.22;;;18.70;99.90;;;;;;5090704;28;20028;-60
2023/07/16 03:36:50;;;;;;;12.57;7.40;;;18.80;99.90;;;;;;5091298;28;20028;-60
2023/07/16 03:39:15;;;;;;;11.50;6.88;;;18.90;99.90;;;;;;5091124;28;20078;-60
2023/07/16 03:41:41;;;;;;;10.30;6.88;;;19.00;99.90;;;;;;5091386;28;20024;-60
2023/07/16 03:44:07;;;;;;;12.15;6.70;;;19.00;99.90;;;;;;5091375;28;20032;-60
2023/07/16 03:46:32;;;;;;;13.00;6.68;;;19.10;99.90;;;;;;5091664;28;20023;-60
2023/07/16 03:48:58;;;;;;;13.20;7.82;;;19.10;99.90;;;;;;5091274;28;20107;-60
2023/07/16 03:51:24;;;;;;;11.77;7.15;;;19.10;99.90;;;;;;5091109;28;20016;-60
2023/07/16 03:53:49;;;;;;;13.70;7.57;;;19.00;99.90;;;;;;5090998;28;20379;-60
2023/07/16 03:56:15;;;;;;;12.98;7.18;;;19.00;99.90;;;;;;5091381;28;20402;-59
2023/07/16 03:58:40;;;;;;;12.63;6.97;;;19.00;99.90;;;;;;5091110;28;20110;-60
2023/07/16 04:01:06;;;;;;;14.15;7.72;;;18.90;99.90;;;;;;5091274;28;20036;-60
2023/07/16 04:03:32;;;;;;;11.50;7.00;;;18.80;99.90;;;;;;5090988;28;20024;-60
2023/07/16 04:06:02;;;;;;;12.15;7.88;;;18.60;99.90;;;;;;5091152;28;20032;-59
2023/07/16 04:08:28;;;;;;;14.18;8.13;;;18.50;99.90;;;;;;5090919;28;20452;-60
2023/07/16 04:10:54;;;;;;;13.27;7.78;;;18.40;99.90;;;;;;5090976;28;20024;-60
2023/07/16 04:13:19;;;;;;;15.45;8.02;;;18.40;99.90;;;;;;5091268;28;20065;-60
2023/07/16 04:15:45;;;;;;;13.38;7.28;;;18.40;99.90;;;;;;5090977;28;20036;-60
2023/07/16 04:18:10;;;;;;;13.40;8.05;;;18.30;99.90;;;;;;5090593;28;20020;-60
2023/07/16 04:20:36;;;;;;;12.65;7.47;;;18.20;99.90;;;;;;5091005;28;20055;-60
2023/07/16 04:23:02;;;;;;;15.25;8.40;;;18.20;99.90;;;;;;5090773;28;20040;-59
2023/07/16 04:25:27;;;;;;;11.80;8.18;;;18.10;99.90;;;;;;5090900;28;20032;-60
2023/07/16 04:27:53;;;;;;;13.85;7.72;;;18.10;99.90;;;;;;5091045;28;20016;-60
2023/07/16 04:30:19;;;;;;;14.73;8.25;;;18.10;99.90;;;;;;5090834;28;20035;-60
2023/07/16 04:32:44;;;;;;;12.90;8.05;;;18.00;99.90;;;;;;5090935;28;20376;-60
2023/07/16 04:35:10;;;;;;;15.57;8.30;;;18.00;99.90;;;;;;5090801;28;20063;-60
2023/07/16 04:37:36;;;;;;;14.25;8.98;;;18.00;99.90;;;;;;5090394;28;20035;-60
2023/07/16 04:40:04;;;;;;;13.90;7.90;;;18.00;99.90;;;;;;5090703;28;20146;-60
2023/07/16 04:42:30;;;;;;;13.73;8.05;;;17.90;99.90;;;;;;5090836;28;20486;-60
2023/07/16 04:44:55;;;;;;;15.40;8.23;;;17.90;99.90;;;;;;5091089;28;20028;-60
2023/07/16 04:47:21;;;;;;;13.57;8.60;;;18.00;99.90;;;;;;5094098;28;20596;-60
2023/07/16 04:49:46;;;;;;;13.32;8.50;;;18.10;99.90;;;;;;5094239;28;20572;-60
2023/07/16 04:52:13;;;;;;;13.80;8.23;;;18.20;99.90;;;;;;5094281;28;20107;-60
2023/07/16 04:54:39;;;;;;;13.30;8.55;;;18.20;99.90;;;;;;5094792;28;20024;-60
2023/07/16 04:57:06;;;;;;;14.13;8.68;;;18.30;99.90;;;;;;5094295;28;20517;-60
2023/07/16 04:59:32;;;;;;;13.02;8.15;;;18.30;99.90;;;;;;5094316;28;20035;-60
2023/07/16 05:01:57;;;;;;;14.38;8.63;;;18.30;99.90;;;;;;5094423;28;20036;-60
2023/07/16 05:04:23;;;;;;;15.98;8.77;;;18.20;99.90;;;;;;5093861;28;20017;-60
2023/07/16 05:06:49;;;;;;;16.50;9.18;;;18.20;99.90;;;;;;5094320;28;20028;-59
2023/07/16 05:09:14;;;;;;;16.30;9.07;;;18.20;99.90;;;;;;5094188;28;20032;-60
2023/07/16 05:11:40;;;;;;;13.40;9.20;;;18.20;99.90;;;;;;5094470;28;20024;-59
2023/07/16 05:14:06;;;;;;;13.80;9.15;;;18.20;99.90;;;;;;5094042;28;20395;-60
2023/07/16 05:16:31;;;;;;;13.48;9.07;;;18.10;99.90;;;;;;5093820;28;20070;-59
2023/07/16 05:18:57;;;;;;;14.05;9.00;;;18.10;99.90;;;;;;5093728;28;20487;-60
2023/07/16 05:21:23;;;;;;;13.57;9.10;;;18.00;99.90;;;;;;5093851;28;20195;-60
2023/07/16 05:23:48;;;;;;;14.32;9.13;;;18.00;99.90;;;;;;5093757;28;20044;-60
2023/07/16 05:26:14;;;;;;;17.30;9.60;;;18.00;99.90;;;;;;5093839;28;20024;-60
2023/07/16 05:28:40;;;;;;;14.40;9.25;;;17.90;99.90;;;;;;5093976;28;20046;-60
2023/07/16 05:31:05;;;;;;;15.73;8.90;;;17.90;99.90;;;;;;5093657;28;20028;-60
2023/07/16 05:33:31;;;;;;;16.70;9.00;;;17.90;99.90;;;;;;5093013;28;20027;-60
2023/07/16 05:35:57;;;;;;;13.98;8.80;;;17.90;99.90;;;;;;5093954;28;20044;-60
2023/07/16 05:38:22;;;;;;;17.30;9.40;;;17.90;99.90;;;;;;5093661;28;20032;-60
2023/07/16 05:40:48;;;;;;;13.70;8.93;;;17.90;99.90;;;;;;5093468;28;20028;-60
2023/07/16 05:43:14;;;;;;;18.02;9.00;;;17.90;99.90;;;;;;5093503;28;20402;-60
2023/07/16 05:45:40;;;;;;;13.60;8.95;;;17.90;99.90;;;;;;5093294;28;20032;-60
2023/07/16 05:48:06;;;;;;;17.63;8.85;;;18.00;99.90;;;;;;5093405;28;20030;-60
2023/07/16 05:50:32;;;;;;;13.13;8.75;;;18.10;99.90;;;;;;5093448;28;20418;-60
2023/07/16 05:52:57;;;;;;;15.23;8.75;;;18.10;99.90;;;;;;5093250;28;20055;-60
2023/07/16 05:55:23;;;;;;;14.95;8.45;;;18.20;99.90;;;;;;5093228;28;20047;-60
2023/07/16 05:57:50;;;;;;;14.55;9.05;;;18.30;99.90;;;;;;5090835;28;20023;-60
2023/07/16 06:00:15;;;;;;;13.60;8.25;;;18.40;99.90;;;;;;5093025;28;20050;-60
2023/07/16 06:02:41;;;;;;;15.38;8.48;;;18.50;99.90;;;;;;5092900;28;20020;-59
2023/07/16 06:05:07;;;;;;;15.25;8.60;;;18.70;99.90;;;;;;5093048;28;20557;-60
2023/07/16 06:07:33;;;;;;;11.95;7.95;;;18.90;99.90;;;;;;5092829;28;20020;-60
2023/07/16 06:09:59;;;;;;;16.92;8.00;;;19.10;99.90;;;;;;5092931;28;20032;-61
2023/07/16 06:12:24;;;;;;;13.50;7.47;;;19.30;99.90;;;;;;5092877;28;20073;-60
2023/07/16 06:14:50;;;;;;;13.35;7.80;;;19.40;99.90;;;;;;5093028;28;20032;-60
2023/07/16 06:17:16;;;;;;;12.48;7.65;;;19.30;99.90;;;;;;5092315;28;20093;-59
2023/07/16 06:19:43;;;;;;;11.55;7.25;;;19.40;99.90;;;;;;5092427;28;20030;-60
2023/07/16 06:22:11;;;;;;;13.80;8.35;;;19.50;99.90;;;;;;5092618;28;20020;-60
2023/07/16 06:24:37;;;;;;;15.32;7.93;;;19.50;99.90;;;;;;5092711;28;20048;-60
2023/07/16 06:27:02;;;;;;;16.65;7.95;;;19.60;99.90;;;;;;5091398;28;20027;-60
2023/07/16 06:29:28;;;;;;;14.75;8.07;;;19.60;99.90;;;;;;5092526;28;20042;-60
2023/07/16 06:31:58;;;;;;;14.15;7.63;;;19.60;99.90;;;;;;5092504;28;20457;-60
2023/07/16 06:34:25;;;;;;;13.15;7.95;;;19.50;99.90;;;;;;5092568;28;20024;-60
2023/07/16 06:36:50;;;;;;;12.80;7.68;;;19.40;99.90;;;;;;5092178;28;20487;-60
2023/07/16 06:39:16;;;;;;;14.20;8.00;;;19.40;99.90;;;;;;5092344;28;20070;-60
2023/07/16 06:41:42;;;;;;;13.88;7.97;;;19.40;99.90;;;;;;5092333;28;20550;-60
2023/07/16 06:44:08;;;;;;;14.90;8.63;;;19.40;99.90;;;;;;5092211;28;20478;-60
2023/07/16 06:46:33;;;;;;;12.98;7.85;;;19.50;99.90;;;;;;5091901;28;20036;-60
2023/07/16 06:48:59;;;;;;;11.30;7.93;;;19.60;99.90;;;;;;5092180;28;20043;-60
2023/07/16 06:51:25;;;;;;;13.85;8.20;;;19.70;99.90;;;;;;5092043;28;20032;-60
2023/07/16 06:53:50;;;;;;;13.52;8.55;;;19.70;99.90;;;;;;5092310;28;20406;-60
2023/07/16 06:56:16;;;;;;;13.93;8.10;;;19.80;99.90;;;;;;5091916;28;20071;-60
2023/07/16 06:58:42;;;;;;;13.27;9.15;;;19.90;99.90;;;;;;5091950;28;20077;-60
2023/07/16 07:01:08;;;;;;;15.00;8.35;;;19.90;99.90;;;;;;5091840;28;20106;-60
2023/07/16 07:03:33;;;;;;;16.52;8.98;;;19.90;99.90;;;;;;5092263;28;20051;-60
2023/07/16 07:06:03;;;;;;;15.32;8.85;;;19.90;99.90;;;;;;5091945;28;20020;-60
2023/07/16 07:08:29;;;;;;;17.35;8.57;;;19.90;99.90;;;;;;5091541;28;20045;-60
2023/07/16 07:10:55;;;;;;;14.13;8.68;;;20.00;99.90;;;;;;5092225;28;20032;-60
2023/07/16 07:13:20;;;;;;;13.23;7.63;;;20.00;99.90;;;;;;5091382;28;20406;-59
2023/07/16 07:15:46;;;;;;;13.55;8.40;;;20.10;99.90;;;;;;5091578;28;20049;-60
2023/07/16 07:18:12;;;;;;;11.20;7.65;;;20.30;99.90;;;;;;5091466;28;20043;-60
2023/07/16 07:20:37;;;;;;;14.90;10.07;;;20.50;99.90;;;;;;5091662;28;20024;-60
2023/07/16 07:23:05;;;;;;;15.57;9.38;;;20.70;99.90;;;;;;5091438;28;20052;-60
2023/07/16 07:25:30;;;;;;;17.17;9.70;;;20.90;99.90;;;;;;5091889;28;20032;-60
2023/07/16 07:27:56;;;;;;;18.10;12.07;;;21.00;99.90;;;;;;5091285;28;20028;-60
2023/07/16 07:30:22;;;;;;;19.35;9.32;;;21.10;99.90;;;;;;5090620;28;20473;-60
2023/07/16 07:32:47;;;;;;;15.82;9.07;;;21.30;99.90;;;;;;5091255;28;20027;-61
2023/07/16 07:35:13;;;;;;;15.05;9.98;;;21.40;99.90;;;;;;5091350;28;20020;-60
2023/07/16 07:37:39;;;;;;;16.75;9.82;;;21.40;99.90;;;;;;5091082;28;20159;-60
2023/07/16 07:40:05;;;;;;;18.92;11.20;;;21.40;99.90;;;;;;5091390;28;20016;-61
2023/07/16 07:42:31;;;;;;;19.58;10.82;;;21.40;99.90;;;;;;5091561;28;20023;-60
2023/07/16 07:44:57;;;;;;;19.13;11.02;;;21.50;99.90;;;;;;5090656;28;20410;-61
2023/07/16 07:47:22;;;;;;;18.25;11.48;;;21.50;99.90;;;;;;5091517;28;20397;-60
2023/07/16 07:49:48;;;;;;;20.38;12.70;;;21.50;99.90;;;;;;5091298;28;20020;-61
2023/07/16 07:52:14;;;;;;;17.98;11.25;;;21.50;99.90;;;;;;5091182;28;20051;-61
2023/07/16 07:54:39;;;;;;;21.75;12.82;;;21.30;99.90;;;;;;5090955;28;20473;-61
2023/07/16 07:57:05;;;;;;;16.70;11.65;;;21.20;99.90;;;;;;5091022;28;20119;-61
2023/07/16 07:59:31;;;;;;;22.05;12.23;;;21.10;99.90;;;;;;5091162;28;20060;-61
2023/07/16 08:01:58;;;;;;;19.98;10.85;;;21.10;99.90;;;;;;5091187;28;20039;-61
2023/07/16 08:04:24;;;;;;;17.50;10.77;;;21.00;99.90;;;;;;5091206;28;20402;-61
2023/07/16 08:06:51;;;;;;;18.92;11.18;;;21.00;99.90;;;;;;5091027;28;20020;-61
2023/07/16 08:09:17;;;;;;;19.15;11.75;;;21.00;99.90;;;;;;5091498;28;20031;-61
2023/07/16 08:11:42;;;;;;;19.73;11.50;;;21.00;99.90;;;;;;5090666;28;20032;-61
2023/07/16 08:14:08;;;;;;;16.20;11.25;;;21.00;99.90;;;;;;5091122;28;20043;-60
2023/07/16 08:16:34;;;;;;;17.55;11.13;;;21.10;99.90;;;;;;5090898;28;20117;-60
2023/07/16 08:18:59;;;;;;;16.67;11.13;;;21.20;99.90;;;;;;5090930;28;20025;-60
2023/07/16 08:21:25;;;;;;;17.67;11.88;;;21.30;99.90;;;;;;5092948;28;20024;-60
2023/07/16 08:23:51;;;;;;;16.75;11.30;;;21.30;99.90;;;;;;5094835;28;20067;-60
2023/07/16 08:26:17;;;;;;;20.73;11.20;;;21.30;99.90;;;;;;5094835;28;20414;-60
2023/07/16 08:28:43;;;;;;;17.17;11.20;;;21.30;99.90;;;;;;5094479;28;20107;-61
2023/07/16 08:31:11;;;;;;;15.50;11.30;;;21.40;99.90;;;;;;5095229;28;20104;-60
2023/07/16 08:33:36;;;;;;;20.05;10.30;;;21.50;99.90;;;;;;5094893;28;20032;-61
2023/07/16 08:36:02;;;;;;;16.42;10.80;;;21.70;99.90;;;;;;5094561;28;20119;-60
2023/07/16 08:38:28;;;;;;;20.70;11.20;;;21.90;99.90;;;;;;5095078;28;20024;-60
2023/07/16 08:40:53;;;;;;;16.00;9.55;;;22.00;99.90;;;;;;5094723;28;20178;-60
2023/07/16 08:43:21;;;;;;;15.90;10.65;;;22.30;99.90;;;;;;5094268;28;20394;-61
2023/07/16 08:45:48;;;;;;;19.80;11.05;;;22.50;99.90;;;;;;5094576;28;20024;-60
2023/07/16 08:48:14;;;;;;;17.80;10.98;;;22.70;99.90;;;;;;5094384;28;20051;-60
2023/07/16 08:50:41;;;;;;;17.92;10.68;;;22.60;99.90;;;;;;5094342;28;20070;-61
2023/07/16 08:53:07;;;;;;;17.35;10.15;;;22.60;99.90;;;;;;5094531;28;20031;-60
2023/07/16 08:55:38;;;;;;;16.70;9.93;;;22.70;99.90;;;;;;5094293;28;20028;-61
2023/07/16 08:58:05;;;;;;;17.52;9.43;;;22.60;99.90;;;;;;5093359;28;20426;-60
2023/07/16 09:00:31;;;;;;;14.90;10.43;;;22.60;99.90;;;;;;5094297;28;20020;-60
2023/07/16 09:02:57;;;;;;;19.25;9.95;;;22.70;99.90;;;;;;5094117;28;20077;-60
2023/07/16 09:05:23;;;;;;;17.40;10.55;;;22.70;99.90;;;;;;5094195;28;20036;-60
2023/07/16 09:07:50;;;;;;;16.85;10.07;;;22.50;99.90;;;;;;5094136;28;20016;-61
2023/07/16 09:10:16;;;;;;;16.55;9.85;;;22.40;99.90;;;;;;5094284;28;20040;-60
2023/07/16 09:12:43;;;;;;;13.60;8.88;;;22.20;99.90;;;;;;5093524;28;20031;-60
2023/07/16 09:15:09;;;;;;;15.98;10.35;;;22.10;99.90;;;;;;5093927;28;20048;-61
2023/07/16 09:17:37;;;;;;;13.55;9.68;;;22.00;99.90;;;;;;5093794;28;20047;-61
2023/07/16 09:20:04;;;;;;;19.42;10.80;;;22.00;99.90;;;;;;5094117;28;20028;-60
2023/07/16 09:22:30;;;;;;;14.98;10.23;;;22.10;99.90;;;;;;5093547;28;20036;-61
2023/07/16 09:24:58;;;;;;;15.65;10.50;;;22.00;99.90;;;;;;5093791;28;20036;-60
2023/07/16 09:27:31;;;;;;;15.48;10.15;;;22.10;99.90;;;;;;5093442;28;20028;-60
2023/07/16 09:29:59;;;;;;;17.70;10.48;;;22.10;99.90;;;;;;5093654;28;20501;-60
2023/07/16 09:32:33;;;;;;;15.73;9.80;;;22.20;99.90;;;;;;5094120;28;20028;-60
2023/07/16 09:34:59;;;;;;;14.88;9.93;;;22.30;99.90;;;;;;5093594;28;20020;-60
2023/07/16 09:37:25;;;;;;;13.60;9.05;;;22.40;99.90;;;;;;5093436;28;20078;-60
2023/07/16 09:39:51;;;;;;;17.27;10.38;;;22.40;99.90;;;;;;5093070;28;20031;-60
2023/07/16 09:42:19;;;;;;;14.20;10.10;;;22.40;99.90;;;;;;5093580;28;20024;-60
2023/07/16 09:44:45;;;;;;;14.27;9.35;;;22.50;99.90;;;;;;5093350;28;20024;-61
2023/07/16 09:47:10;;;;;;;15.32;9.90;;;22.50;99.90;;;;;;5093699;28;20043;-60
2023/07/16 09:49:36;;;;;;;18.33;10.68;;;22.60;99.90;;;;;;5093552;28;20030;-60
2023/07/16 09:52:02;;;;;;;15.75;9.57;;;22.90;99.90;;;;;;5093079;28;20039;-60
2023/07/16 09:54:32;;;;;;;12.15;9.57;;;23.00;99.90;;;;;;5091256;28;20039;-60
2023/07/16 09:57:00;;;;;;;18.23;9.75;;;23.00;99.90;;;;;;5093418;28;20044;-61
2023/07/16 09:59:30;;;;;;;14.70;9.20;;;23.10;99.90;;;;;;5093131;28;20024;-60
2023/07/16 10:01:57;;;;;;;14.90;9.40;;;23.10;99.90;;;;;;5093283;28;20031;-60
2023/07/16 10:04:22;;;;;;;16.40;9.63;;;23.20;99.90;;;;;;5093002;28;20024;-61
2023/07/16 10:07:29;;;;;;;14.07;9.25;;;23.20;99.90;;;;;;5092869;28;20031;-60
2023/07/16 10:09:56;;;;;;;13.25;8.90;;;23.10;99.90;;;;;;5092201;28;20036;-60
2023/07/16 10:12:24;;;;;;;13.13;8.75;;;23.20;99.90;;;;;;5093211;28;20024;-60
2023/07/16 10:14:52;;;;;;;15.13;9.13;;;23.00;99.90;;;;;;5092806;28;20584;-60
2023/07/16 10:17:18;;;;;;;14.23;9.13;;;23.10;99.90;;;;;;5092538;28;20529;-60
2023/07/16 10:19:51;;;;;;;15.65;9.73;;;23.20;99.90;;;;;;5088435;28;20024;-60
2023/07/16 10:22:32;;;;;;;13.00;9.05;;;23.10;99.90;;;;;;5092641;28;20529;-60
2023/07/16 10:24:57;;;;;;;16.30;9.13;;;23.00;99.90;;;;;;5092233;28;20051;-60
2023/07/16 10:27:41;;;;;;;14.73;8.93;;;22.90;99.90;;;;;;5092582;28;20402;-61
2023/07/16 10:30:07;;;;;;;14.40;9.40;;;22.80;99.90;;;;;;5092556;28;20027;-60
2023/07/16 10:32:33;;;;;;;16.67;9.43;;;22.70;99.90;;;;;;5092358;28;20032;-60
2023/07/16 10:35:00;;;;;;;13.60;8.68;;;22.70;99.90;;;;;;5092355;28;20357;-61
2023/07/16 10:37:26;;;;;;;15.98;9.40;;;22.70;99.90;;;;;;5090950;28;20392;-60
2023/07/16 10:39:54;;;;;;;12.10;9.43;;;22.80;99.90;;;;;;5091976;28;20020;-61
2023/07/16 10:42:24;;;;;;;13.85;9.43;;;22.70;99.90;;;;;;5092618;28;20105;-61
2023/07/16 10:44:52;;;;;;;15.40;9.57;;;22.60;99.90;;;;;;5091570;28;20103;-60
2023/07/16 10:47:24;;;;;;;14.48;8.85;;;22.60;99.90;;;;;;5092240;28;20042;-60
2023/07/16 10:49:51;;;;;;;12.88;8.70;;;22.60;99.90;;;;;;5092041;28;20028;-61
2023/07/16 10:52:18;;;;;;;13.20;8.90;;;22.50;99.90;;;;;;5091691;28;20452;-60
2023/07/16 10:54:43;;;;;;;15.65;9.70;;;22.40;99.90;;;;;;5092515;28;20024;-60
2023/07/16 10:57:11;;;;;;;11.52;9.60;;;22.40;99.90;;;;;;5091888;28;20085;-60
2023/07/16 10:59:39;;;;;;;12.70;9.05;;;22.30;99.90;;;;;;5092020;28;20030;-61
2023/07/16 11:02:10;;;;;;;14.05;8.98;;;22.30;99.90;;;;;;5092025;28;20106;-60
2023/07/16 11:04:36;;;;;;;13.15;8.68;;;22.20;99.90;;;;;;5092206;28;20028;-60
2023/07/16 11:07:08;;;;;;;14.50;9.23;;;22.30;99.90;;;;;;5091469;28;20058;-60
2023/07/16 11:09:35;;;;;;;14.15;8.98;;;22.40;99.90;;;;;;5091852;28;20031;-60
2023/07/16 11:12:07;;;;;;;12.45;9.25;;;22.50;99.90;;;;;;5091686;28;20028;-60
2023/07/16 11:14:34;;;;;;;15.13;9.80;;;22.60;99.90;;;;;;5091754;28;20138;-61
2023/07/16 11:17:07;;;;;;;15.68;9.18;;;22.70;99.90;;;;;;5091640;28;20044;-61
2023/07/16 11:19:34;;;;;;;12.10;9.27;;;22.70;99.90;;;;;;5091623;28;20032;-61
2023/07/16 11:22:01;;;;;;;13.15;9.25;;;22.80;99.90;;;;;;5090046;28;20547;-60
2023/07/16 11:24:27;;;;;;;15.55;9.52;;;22.80;99.90;;;;;;5091850;28;20043;-61
2023/07/16 11:26:57;;;;;;;14.77;9.10;;;22.80;99.90;;;;;;5091465;28;20375;-60
2023/07/16 11:29:24;;;;;;;13.10;9.20;;;22.90;99.90;;;;;;5091596;28;20035;-61
2023/07/16 11:31:53;;;;;;;13.38;9.18;;;22.90;99.90;;;;;;5091546;28;20020;-61
2023/07/16 11:34:22;;;;;;;14.80;9.50;;;22.90;99.90;;;;;;5091350;28;20102;-60
2023/07/16 11:36:49;;;;;;;13.40;9.13;;;22.80;99.90;;;;;;5090764;28;20080;-61
2023/07/16 11:39:14;;;;;;;14.40;9.52;;;22.80;99.90;;;;;;5091389;28;20024;-61
2023/07/16 11:41:40;;;;;;;17.52;9.30;;;22.70;99.90;;;;;;5091320;28;20547;-61
2023/07/16 11:44:09;;;;;;;15.65;9.73;;;22.70;99.90;;;;;;5091611;28;20024;-60
2023/07/16 11:46:35;;;;;;;15.95;9.45;;;22.50;99.90;;;;;;5091291;28;20028;-61
2023/07/16 11:49:03;;;;;;;14.73;8.73;;;22.40;99.90;;;;;;5091091;28;20047;-61
2023/07/16 11:51:29;;;;;;;14.98;9.00;;;22.40;99.90;;;;;;5090895;28;20713;-61
2023/07/16 11:53:57;;;;;;;17.88;10.10;;;22.40;99.90;;;;;;5091276;28;20052;-61
2023/07/16 11:56:23;;;;;;;16.13;10.27;;;22.30;99.90;;;;;;5090246;28;20039;-61
2023/07/16 11:58:50;;;;;;;17.38;10.50;;;22.20;99.90;;;;;;5091151;28;20047;-61
2023/07/16 12:01:15;;;;;;;16.77;10.50;;;22.10;99.90;;;;;;5091062;28;20035;-61
2023/07/16 12:03:41;;;;;;;15.20;10.18;;;22.10;99.90;;;;;;5091370;28;20016;-61
2023/07/16 12:06:08;;;;;;;15.70;10.23;;;22.10;99.90;;;;;;5090790;28;20513;-61
2023/07/16 12:08:34;;;;;;;12.60;8.88;;;22.10;99.90;;;;;;5091116;28;20057;-60
2023/07/16 12:11:00;;;;;;;16.23;10.50;;;22.20;99.90;;;;;;5090934;28;20036;-62
2023/07/16 12:13:25;;;;;;;14.82;9.65;;;22.20;99.90;;;;;;5091010;28;20022;-61
2023/07/16 12:15:51;;;;;;;15.60;9.73;;;22.20;99.90;;;;;;5090902;28;20032;-61
2023/07/16 12:18:16;;;;;;;13.98;9.43;;;22.20;99.90;;;;;;5090734;28;20038;-61
2023/07/16 12:20:42;;;;;;;20.42;10.75;;;22.30;99.90;;;;;;5090986;28;20103;-61
2023/07/16 12:23:08;;;;;;;18.27;9.73;;;22.30;99.90;;;;;;5090785;28;20060;-61
2023/07/16 12:25:34;;;;;;;15.63;9.65;;;22.50;99.90;;;;;;5090920;28;20589;-61
2023/07/16 12:28:01;;;;;;;16.02;9.25;;;22.70;99.90;;;;;;5091241;28;20024;-61
2023/07/16 12:30:27;;;;;;;14.75;9.60;;;22.80;99.90;;;;;;5090707;28;20067;-61
2023/07/16 12:32:53;;;;;;;17.63;9.13;;;23.00;99.90;;;;;;5090788;28;20430;-61
2023/07/16 12:35:19;;;;;;;15.18;9.13;;;23.00;99.90;;;;;;5090699;28;20059;-61